首页
METAR-TAF:

METAR-TAF

机场 :

维杰亚瓦达, 印度

纬度: 16-31-44N, 经度: 80-47-45E, 海拔: 25米

当前天气观测

该预报发布于4小时和52分钟前的18:30 UTC
静风
温度 28°C
湿度 84%
气压 1001 hPa
能見度: 6000
少量云层高于1800英尺
散云层高于2500英尺

METAR: VOBZ 221830Z 00000KT 6000 FEW018 SCT025 28/25 Q1001 NOSIG

时间: 04:52 (23:22 UTC)

预报

该预报发布于3小时和22分钟前的20:00 UTC
预报有效从22日的 21点(UTC)到 23日的 06点(UTC)
风速10节,风向西南
能見度: 6000
散云层高于1500英尺
散云层高于10000英尺
短暂存在
从 22日的 23点(UTC)到 23日的 03点(UTC)
风速8节,风向西转西南
能見度: 3000
散云层高于1500英尺
多云层高于8000英尺
轻雾
成为
从 23日的 04点(UTC)到 23日的 06点(UTC)
风速10节,风向西
能見度: 6000
散云层高于1500英尺
散云层高于2500英尺

TAF: VOBZ 222000Z 2221/2306 23010KT 6000 SCT015 SCT100 TEMPO 2223/2303 25008KT 3000 BR SCT015 BKN080 BECMG 2304/2306 26010KT 6000 SCT015 SCT025

超过4000个机场的气象观测和天气预报(METAR&TAF报告)。

可查询的气象台以黄色和红色小点在地图上表示。

将鼠标移到小点上方,可查看气象台名称。

然后点击查看天气观测和预报。

如需切换地图:点击带黑十字的绿色按钮放大地图;点击带横线的绿色按钮缩小地图;或者点击绿色箭头查看邻近地区的地图。


METAR-TAF: